Airfield :
LOGIN :

Register | Disclaimer

   EN    FR    IT 

 










Legend :    VFR   Marginal VFR   IFR   Intensive IFR   Very Intensive IFR
Visi :
Ceiling :
>= 8 km
>= 3000ft
5 to 8 km
1000 to 3000 ft
1500m to 5 km
500 to 1000 ft
800 to 1500m
200 to 500 ft
< 800m
< 200 ft
Symbols :   Thunderstorms  Fog  Heavy snow  Heavy precipitations  Wind > 20 kt
SIGMETs :     Misc.  Thunderstorms  Icing  Turbulence  Mountain Waves  Volcanic Ashes







- Airport Elevation : 412 ft
- IATA code : ORE
- Download approach charts


LFOJ - Orleans

CURRENT METAR :
  • 251400Z AUTO 20015G42KT 120V240 9000 -RA FEW017/// BKN032/// BKN043/// ///CB 10/06 Q1005 TEMPO 22015G30KT 4000 TSRA

EXPIRED METARs :
  • 251330Z AUTO 19011KT 9999 BKN031/// BKN038/// BKN110/// ///TCU 13/07 Q1005 TEMPO 22015G30KT 4000 TSRA BKN030CB
  • 251300Z AUTO 20012KT 160V220 9999 BKN026/// BKN032/// OVC086/// ///TCU 14/07 Q1005 TEMPO 22015G30KT 4000 TSRA BKN030CB
  • 251230Z AUTO 19014KT 9999 FEW018 BKN023 BKN033 14/09 Q1005 TEMPO 22015G30KT 4000 TSRA BKN030CB
  • 251200Z AUTO 18010KT 9999 OVC017 13/09 Q1004 BECMG SHRA SCT030TCU
  • 251130Z AUTO 18012KT 9999 BKN015 OVC120 11/08 Q1004 BECMG SHRA SCT030TCU

TAF TAF LFOJ
Valid from the 25 at 15:00 until the 26 at 15:00 UTC


251400Z 2515/2615 19012KT 5000 SHRA BKN030TCU
PROB40
TEMPO 2515/2518 22020G40KT 4000 TSRA BKN030CB
BECMG 2518/2520 NSW SCT040
PROB40
TEMPO 2523/2603 5000 BR BKN003
BECMG 2606/2608 8000 NSW BKN018
PROB40
TEMPO 2611/2615 4000 SHRA BKN020TCU
No reported NOTAMs for that airfield.
1 SIGMET reported for the Paris FIR (LFFF) :
 
Embedded thunderstorms
LFFF SIGMET 6 VALID 251350/251600 LFPW
LFFF PARIS FIR/UIR EMBD TS OBS AT 1350Z WI N5000 W00015 - N5045 E00115 - N4715 E00145 - N4715 E00000 - N5000 W00015 TOP FL290 MOV NE 25KT NC=



MET'MAP, your aeronautical weather chart ! - Copyright ORBIFLY December 2007 - Disclaimer

ORBIFLY MET'MAP TEAM :

Programming & Development : Alexandra Zaïnal
Concept & Development : Baudouin d'Aumeries
Co-Development & Prog : Marc-Olivier Méhu
Technical & hardware support : Manuel Goepfert

Contact : metmap@orbifly.com




SOURCES & CREDITS :

   NOAA